Time;durP1;ratioP1;P1;durP2;ratioP2;P2;SDS_P1;SDS_P2;PMS_P1;PMS_P2;Temp;Humidity;BMP_temperature;BMP_pressure;BME280_temperature;BME280_humidity;BME280_pressure;Samples;Min_cycle;Max_cycle;Signal;HPM_P1;HPM_P2
2022/06/09 00:01:23;;;;;;;;;;;22.90;99.90;;;;;;5015300;28;19961;-77
2022/06/09 00:03:54;;;;;;;;;;;22.90;99.90;;;;;;5014998;28;19944;-77
2022/06/09 00:06:22;;;;;;;;;;;22.90;99.90;;;;;;5015203;28;20012;-77
2022/06/09 00:08:52;;;;;;;;;;;22.90;99.90;;;;;;5015132;28;20008;-77
2022/06/09 00:11:20;;;;;;;;;;;22.90;99.90;;;;;;5014711;28;19921;-77
2022/06/09 00:13:47;;;;;;;;;;;22.90;99.90;;;;;;5014888;28;19925;-77
2022/06/09 00:16:14;;;;;;;;;;;22.90;99.90;;;;;;5014955;28;19921;-77
2022/06/09 00:18:41;;;;;;;;;;;22.90;99.90;;;;;;5014940;28;19927;-77
2022/06/09 00:21:08;;;;;;;;;;;22.90;99.90;;;;;;5014975;28;20364;-77
2022/06/09 00:23:36;;;;;;;;;;;22.90;99.90;;;;;;5014730;28;20288;-77
2022/06/09 00:26:04;;;;;;;;;;;22.80;99.90;;;;;;5014874;28;20027;-77
2022/06/09 00:28:31;;;;;;;;;;;22.90;99.90;;;;;;5014793;28;19972;-77
2022/06/09 00:30:58;;;;;;;;;;;22.90;99.90;;;;;;5014730;28;19928;-77
2022/06/09 00:33:24;;;;;;;;;;;22.90;99.90;;;;;;5014781;28;19927;-77
2022/06/09 00:35:51;;;;;;;;;;;22.90;99.90;;;;;;5014685;28;19976;-77
2022/06/09 00:38:18;;;;;;;;;;;22.90;99.90;;;;;;5015172;28;19960;-77
2022/06/09 00:40:44;;;;;;;;;;;22.90;99.90;;;;;;5013836;28;20397;-77
2022/06/09 00:43:12;;;;;;;;;;;22.90;99.90;;;;;;5014294;28;20357;-77
2022/06/09 00:45:40;;;;;;;;;;;22.90;99.90;;;;;;5014548;28;20012;-77
2022/06/09 00:48:22;;;;;;;;;;;22.90;99.90;;;;;;5014628;28;19961;-77
2022/06/09 00:50:49;;;;;;;;;;;22.90;99.90;;;;;;5012645;28;19925;-77
2022/06/09 00:53:19;;;;;;;;;;;22.90;99.90;;;;;;5014211;28;19921;-77
2022/06/09 00:55:46;;;;;;;;;;;22.90;99.90;;;;;;5014450;28;20015;-77
2022/06/09 00:58:16;;;;;;;;;;;22.90;99.90;;;;;;5014362;28;19929;-77
2022/06/09 01:00:46;;;;;;;;;;;22.90;99.90;;;;;;5014011;28;20377;-77
2022/06/09 01:03:13;;;;;;;;;;;22.90;99.90;;;;;;5013900;28;19929;-77
2022/06/09 01:05:41;;;;;;;;;;;22.90;99.90;;;;;;5014101;28;20004;-77
2022/06/09 01:08:09;;;;;;;;;;;22.90;99.90;;;;;;5014308;28;20012;-77
2022/06/09 01:10:36;;;;;;;;;;;22.90;99.90;;;;;;5014261;28;19933;-77
2022/06/09 01:13:03;;;;;;;;;;;22.90;99.90;;;;;;5014229;28;19964;-77
2022/06/09 01:15:36;;;;;;;;;;;22.90;99.90;;;;;;5014067;28;20019;-78
2022/06/09 01:18:10;;;;;;;;;;;22.90;99.90;;;;;;5014232;28;19922;-78
2022/06/09 01:20:40;;;;;;;;;;;22.90;99.90;;;;;;5014229;28;19925;-78
2022/06/09 01:23:22;;;;;;;;;;;22.90;99.90;;;;;;5013721;28;19929;-77
2022/06/09 01:26:07;;;;;;;;;;;22.90;99.90;;;;;;5014166;28;20008;-77
2022/06/09 01:28:47;;;;;;;;;;;22.90;99.90;;;;;;5014096;28;19928;-77
2022/06/09 01:31:19;;;;;;;;;;;22.90;99.90;;;;;;5014154;28;20012;-77
2022/06/09 01:33:48;;;;;;;;;;;22.90;99.90;;;;;;5014001;28;19928;-77
2022/06/09 01:36:17;;;;;;;;;;;22.90;99.90;;;;;;5013990;28;19922;-77
2022/06/09 01:38:45;;;;;;;;;;;22.90;99.90;;;;;;5013955;28;20015;-77
2022/06/09 01:41:12;;;;;;;;;;;22.90;99.90;;;;;;5013662;28;20377;-77
2022/06/09 01:43:39;;;;;;;;;;;22.90;99.90;;;;;;5013829;28;19971;-77
2022/06/09 01:46:07;;;;;;;;;;;22.90;99.90;;;;;;5013630;28;20380;-78
2022/06/09 01:48:36;;;;;;;;;;;22.90;99.90;;;;;;5013634;28;20464;-78
2022/06/09 01:51:05;;;;;;;;;;;22.90;99.90;;;;;;5014149;28;20003;-78
2022/06/09 01:53:34;;;;;;;;;;;22.80;99.90;;;;;;5016900;28;19921;-78
2022/06/09 01:56:03;;;;;;;;;;;22.90;99.90;;;;;;5017631;28;19927;-78
2022/06/09 01:58:32;;;;;;;;;;;22.90;99.90;;;;;;5017268;28;19921;-78
2022/06/09 02:01:00;;;;;;;;;;;22.80;99.90;;;;;;5017545;28;19927;-78
2022/06/09 02:03:29;;;;;;;;;;;22.90;99.90;;;;;;5017027;28;19931;-78
2022/06/09 02:05:59;;;;;;;;;;;22.90;99.90;;;;;;5017195;28;19972;-78
2022/06/09 02:08:29;;;;;;;;;;;22.80;99.90;;;;;;5017436;28;19928;-78
2022/06/09 02:10:56;;;;;;;;;;;22.80;99.90;;;;;;5017541;28;20060;-78
2022/06/09 02:13:25;;;;;;;;;;;22.90;99.90;;;;;;5017148;28;20007;-78
2022/06/09 02:15:54;;;;;;;;;;;22.80;99.90;;;;;;5017217;28;20332;-78
2022/06/09 02:18:21;;;;;;;;;;;22.80;99.90;;;;;;5016873;28;19928;-78
2022/06/09 02:20:50;;;;;;;;;;;22.80;99.90;;;;;;5017135;28;19927;-78
2022/06/09 02:23:18;;;;;;;;;;;22.90;99.90;;;;;;5016615;28;20381;-78
2022/06/09 02:25:44;;;;;;;;;;;22.90;99.90;;;;;;5017262;28;20013;-78
2022/06/09 02:28:11;;;;;;;;;;;22.80;99.90;;;;;;5017531;28;19928;-76
2022/06/09 02:30:38;;;;;;;;;;;22.80;99.90;;;;;;5016932;28;20012;-76
2022/06/09 02:33:05;;;;;;;;;;;22.90;99.90;;;;;;5016921;28;19928;-76
2022/06/09 02:35:32;;;;;;;;;;;22.90;99.90;;;;;;5016478;28;19953;-76
2022/06/09 02:38:00;;;;;;;;;;;22.90;99.90;;;;;;5016771;28;19927;-76
2022/06/09 02:40:28;;;;;;;;;;;22.80;99.90;;;;;;5016784;28;19928;-76
2022/06/09 02:42:54;;;;;;;;;;;22.90;99.90;;;;;;5016381;28;19927;-76
2022/06/09 02:45:21;;;;;;;;;;;22.80;99.90;;;;;;5016628;28;20280;-76
2022/06/09 02:47:48;;;;;;;;;;;22.80;99.90;;;;;;5016578;28;19932;-76
2022/06/09 02:50:15;;;;;;;;;;;22.90;99.90;;;;;;5016536;28;20011;-76
2022/06/09 02:52:42;;;;;;;;;;;22.80;99.90;;;;;;5016501;28;20017;-76
2022/06/09 02:55:09;;;;;;;;;;;22.90;99.90;;;;;;5016030;28;19928;-76
2022/06/09 02:57:38;;;;;;;;;;;22.90;99.90;;;;;;5016110;28;19922;-76
2022/06/09 03:00:05;;;;;;;;;;;22.80;99.90;;;;;;5016403;28;20016;-76
2022/06/09 03:02:32;;;;;;;;;;;22.90;99.90;;;;;;5015891;28;19943;-76
2022/06/09 03:04:59;;;;;;;;;;;22.80;99.90;;;;;;5015803;28;20396;-76
2022/06/09 03:07:26;;;;;;;;;;;22.90;99.90;;;;;;5016236;28;20011;-76
2022/06/09 03:09:53;;;;;;;;;;;22.80;99.90;;;;;;5016196;28;19929;-76
2022/06/09 03:12:20;;;;;;;;;;;22.80;99.90;;;;;;5016203;28;19928;-76
2022/06/09 03:14:48;;;;;;;;;;;22.90;99.90;;;;;;5015783;28;20337;-76
2022/06/09 03:17:15;;;;;;;;;;;22.90;99.90;;;;;;5015836;28;19922;-76
2022/06/09 03:19:42;;;;;;;;;;;22.90;99.90;;;;;;5015792;28;19921;-76
2022/06/09 03:22:09;;;;;;;;;;;22.80;99.90;;;;;;5015648;28;20012;-76
2022/06/09 03:24:36;;;;;;;;;;;22.80;99.90;;;;;;5015775;28;19928;-76
2022/06/09 03:27:02;;;;;;;;;;;22.80;99.90;;;;;;5015523;28;20440;-76
2022/06/09 03:29:29;;;;;;;;;;;22.90;99.90;;;;;;5015800;28;20012;-76
2022/06/09 03:31:57;;;;;;;;;;;22.90;99.90;;;;;;5015773;28;19968;-76
2022/06/09 03:34:24;;;;;;;;;;;22.90;99.90;;;;;;5015671;28;19921;-76
2022/06/09 03:36:51;;;;;;;;;;;22.90;99.90;;;;;;5015686;28;20011;-76
2022/06/09 03:39:17;;;;;;;;;;;22.90;99.90;;;;;;5015645;28;19964;-76
2022/06/09 03:41:44;;;;;;;;;;;22.80;99.90;;;;;;5015582;28;19973;-76
2022/06/09 03:44:10;;;;;;;;;;;22.90;99.90;;;;;;5015377;28;19980;-76
2022/06/09 03:46:37;;;;;;;;;;;22.90;99.90;;;;;;5015493;28;19921;-75
2022/06/09 03:49:05;;;;;;;;;;;22.90;99.90;;;;;;5015401;28;19921;-75
2022/06/09 03:51:33;;;;;;;;;;;22.80;99.90;;;;;;5015205;28;19921;-75
2022/06/09 03:54:00;;;;;;;;;;;22.80;99.90;;;;;;5015079;28;19925;-76
2022/06/09 03:56:27;;;;;;;;;;;22.90;99.90;;;;;;5015312;28;19921;-76
2022/06/09 03:58:53;;;;;;;;;;;22.80;99.90;;;;;;5015284;28;20291;-77
2022/06/09 04:01:20;;;;;;;;;;;22.80;99.90;;;;;;5015278;28;19921;-78
2022/06/09 04:03:47;;;;;;;;;;;22.80;99.90;;;;;;5015133;28;19928;-78
2022/06/09 04:06:17;;;;;;;;;;;22.80;99.90;;;;;;5014867;28;20432;-78
2022/06/09 04:08:43;;;;;;;;;;;22.80;99.90;;;;;;5014791;28;19927;-78
2022/06/09 04:11:10;;;;;;;;;;;22.80;99.90;;;;;;5014841;28;20374;-78
2022/06/09 04:13:37;;;;;;;;;;;22.80;99.90;;;;;;5014929;28;19922;-78
2022/06/09 04:16:06;;;;;;;;;;;22.80;99.90;;;;;;5014428;28;19921;-80
2022/06/09 04:18:33;;;;;;;;;;;22.80;99.90;;;;;;5015061;28;19975;-79
2022/06/09 04:20:59;;;;;;;;;;;22.80;99.90;;;;;;5014881;28;20020;-79
2022/06/09 04:23:27;;;;;;;;;;;22.80;99.90;;;;;;5014809;28;19928;-79
2022/06/09 04:25:54;;;;;;;;;;;22.80;99.90;;;;;;5015041;28;20023;-79
2022/06/09 04:28:21;;;;;;;;;;;22.80;99.90;;;;;;5014810;28;20330;-78
2022/06/09 04:30:48;;;;;;;;;;;22.80;99.90;;;;;;5014434;28;20392;-78
2022/06/09 04:33:15;;;;;;;;;;;22.80;99.90;;;;;;5015303;28;20020;-79
2022/06/09 04:35:41;;;;;;;;;;;22.80;99.90;;;;;;5015115;28;19928;-78
2022/06/09 04:38:11;;;;;;;;;;;22.80;99.90;;;;;;5014379;28;20530;-78
2022/06/09 04:40:40;;;;;;;;;;;22.80;99.90;;;;;;5014254;28;20396;-78
2022/06/09 04:43:08;;;;;;;;;;;22.80;99.90;;;;;;5014427;28;19921;-78
2022/06/09 04:45:35;;;;;;;;;;;22.80;99.90;;;;;;5015122;28;19921;-81
2022/06/09 04:48:02;;;;;;;;;;;22.80;99.90;;;;;;5015710;28;19921;-80
2022/06/09 04:50:28;;;;;;;;;;;22.80;99.90;;;;;;5015723;28;20028;-80
2022/06/09 04:52:55;;;;;;;;;;;22.80;99.90;;;;;;5015346;28;19943;-80
2022/06/09 04:55:22;;;;;;;;;;;22.80;99.90;;;;;;5015772;28;20032;-81
2022/06/09 04:57:50;;;;;;;;;;;22.80;99.90;;;;;;5015971;28;20016;-80
2022/06/09 05:00:17;;;;;;;;;;;22.80;99.90;;;;;;5014888;28;19928;-80
2022/06/09 05:02:44;;;;;;;;;;;22.80;99.90;;;;;;5016425;28;20016;-79
2022/06/09 05:05:17;;;;;;;;;;;22.80;99.90;;;;;;5016102;28;19927;-79
2022/06/09 05:07:43;;;;;;;;;;;22.80;99.90;;;;;;5018041;28;20396;-79
2022/06/09 05:10:10;;;;;;;;;;;22.80;99.90;;;;;;5017489;28;20343;-79
2022/06/09 05:12:37;;;;;;;;;;;22.80;99.90;;;;;;5017409;28;19989;-79
2022/06/09 05:15:06;;;;;;;;;;;22.80;99.90;;;;;;5018600;28;19968;-79
2022/06/09 05:17:32;;;;;;;;;;;22.80;99.90;;;;;;5017254;28;20000;-79
2022/06/09 05:19:59;;;;;;;;;;;22.80;99.90;;;;;;5016304;28;19925;-79
2022/06/09 05:22:26;;;;;;;;;;;22.70;99.90;;;;;;5016569;28;19944;-79
2022/06/09 05:24:52;;;;;;;;;;;22.70;99.90;;;;;;5016841;28;19928;-80
2022/06/09 05:27:21;;;;;;;;;;;22.80;99.90;;;;;;5019790;28;20374;-80
2022/06/09 05:29:48;;;;;;;;;;;22.80;99.90;;;;;;5019585;28;19921;-80
2022/06/09 05:32:16;;;;;;;;;;;22.80;99.90;;;;;;5020285;28;19968;-80
2022/06/09 05:34:42;;;;;;;;;;;22.80;99.90;;;;;;5021117;28;20021;-80
2022/06/09 05:37:09;;;;;;;;;;;22.80;99.90;;;;;;5020935;28;20016;-80
2022/06/09 05:45:09;;;;;;;;;;;22.70;99.90;;;;;;4999623;28;19965;-80
2022/06/09 05:47:38;;;;;;;;;;;22.80;99.90;;;;;;5020829;28;19975;-80
2022/06/09 05:50:05;;;;;;;;;;;22.80;99.90;;;;;;5021948;28;19922;-80
2022/06/09 05:52:32;;;;;;;;;;;22.70;99.90;;;;;;5021787;28;20008;-80
2022/06/09 05:54:58;;;;;;;;;;;22.80;99.90;;;;;;5021616;28;19981;-80
2022/06/09 05:57:26;;;;;;;;;;;22.80;99.90;;;;;;5021064;28;19961;-80
2022/06/09 05:59:53;;;;;;;;;;;22.70;99.90;;;;;;5020898;28;20020;-80
2022/06/09 06:02:21;;;;;;;;;;;22.80;99.90;;;;;;5020983;28;19931;-80
2022/06/09 06:04:49;;;;;;;;;;;22.70;99.90;;;;;;5021635;28;19928;-80
2022/06/09 06:07:16;;;;;;;;;;;22.70;99.90;;;;;;5020598;28;19921;-80
2022/06/09 06:09:43;;;;;;;;;;;22.70;99.90;;;;;;5019411;28;19984;-80
2022/06/09 06:12:10;;;;;;;;;;;22.80;99.90;;;;;;5020449;28;19925;-80
2022/06/09 06:14:37;;;;;;;;;;;22.80;99.90;;;;;;5020009;28;19921;-80
2022/06/09 06:17:04;;;;;;;;;;;22.80;99.90;;;;;;5019856;28;19921;-80
2022/06/09 06:19:30;;;;;;;;;;;22.80;99.90;;;;;;5020072;28;20012;-80
2022/06/09 06:21:58;;;;;;;;;;;22.70;99.90;;;;;;5019737;28;20428;-80
2022/06/09 06:24:25;;;;;;;;;;;22.70;99.90;;;;;;5019605;28;20016;-80
2022/06/09 06:26:53;;;;;;;;;;;22.80;99.90;;;;;;5019766;28;19928;-80
2022/06/09 06:29:22;;;;;;;;;;;22.80;99.90;;;;;;5020134;28;20004;-80
2022/06/09 06:31:49;;;;;;;;;;;22.80;99.90;;;;;;5019798;28;20328;-80
2022/06/09 06:34:16;;;;;;;;;;;22.70;99.90;;;;;;5020309;28;19925;-80
2022/06/09 06:36:42;;;;;;;;;;;22.70;99.90;;;;;;5020155;28;19921;-80
2022/06/09 06:39:10;;;;;;;;;;;22.70;99.90;;;;;;5018604;28;20003;-80
2022/06/09 06:41:38;;;;;;;;;;;22.80;99.90;;;;;;5019119;28;20008;-79
2022/06/09 06:44:05;;;;;;;;;;;22.80;99.90;;;;;;5018862;28;20366;-79
2022/06/09 06:46:31;;;;;;;;;;;22.80;99.90;;;;;;5019171;28;20036;-80
2022/06/09 06:48:58;;;;;;;;;;;22.70;99.90;;;;;;5018512;28;20008;-78
2022/06/09 06:51:25;;;;;;;;;;;22.80;99.90;;;;;;5017192;28;19984;-79
2022/06/09 06:53:51;;;;;;;;;;;22.80;99.90;;;;;;5018130;28;20004;-79
2022/06/09 06:56:19;;;;;;;;;;;22.80;99.90;;;;;;5017006;28;19972;-78
2022/06/09 06:58:46;;;;;;;;;;;22.80;99.90;;;;;;5016226;28;20440;-77
2022/06/09 07:01:12;;;;;;;;;;;22.80;99.90;;;;;;5016445;28;19921;-77
2022/06/09 07:03:40;;;;;;;;;;;22.80;99.90;;;;;;5016445;28;19943;-77
2022/06/09 07:06:08;;;;;;;;;;;22.80;99.90;;;;;;5016194;28;20379;-78
2022/06/09 07:08:35;;;;;;;;;;;22.80;99.90;;;;;;5016417;28;19972;-78
2022/06/09 07:11:02;;;;;;;;;;;22.80;99.90;;;;;;5016230;28;20026;-79
2022/06/09 07:13:30;;;;;;;;;;;22.80;99.90;;;;;;5016043;28;19972;-78
2022/06/09 07:15:57;;;;;;;;;;;22.80;99.90;;;;;;5015913;28;19922;-78
2022/06/09 07:18:24;;;;;;;;;;;22.80;99.90;;;;;;5016849;28;19960;-78
2022/06/09 07:20:51;;;;;;;;;;;22.80;99.90;;;;;;5016778;28;20388;-78
2022/06/09 07:23:17;;;;;;;;;;;22.80;99.90;;;;;;5017089;28;19964;-79
2022/06/09 07:25:44;;;;;;;;;;;22.70;99.90;;;;;;5016331;28;19922;-78
2022/06/09 07:28:11;;;;;;;;;;;22.80;99.90;;;;;;5017010;28;19926;-77
2022/06/09 07:30:39;;;;;;;;;;;22.80;99.90;;;;;;5016730;28;20012;-78
2022/06/09 07:33:06;;;;;;;;;;;22.80;99.90;;;;;;5016008;28;19928;-78
2022/06/09 07:35:34;;;;;;;;;;;22.80;99.90;;;;;;5015910;28;19975;-79
2022/06/09 07:38:01;;;;;;;;;;;22.80;99.90;;;;;;5016451;28;19932;-79
2022/06/09 07:40:27;;;;;;;;;;;22.80;99.90;;;;;;5016449;28;20445;-79
2022/06/09 07:42:54;;;;;;;;;;;22.80;99.90;;;;;;5015438;28;20340;-78
2022/06/09 07:45:21;;;;;;;;;;;22.80;99.90;;;;;;5015580;28;19973;-78
2022/06/09 07:47:49;;;;;;;;;;;22.80;99.90;;;;;;5015684;28;19968;-78
2022/06/09 07:50:16;;;;;;;;;;;22.80;99.90;;;;;;5015558;28;19922;-77
2022/06/09 07:52:43;;;;;;;;;;;22.80;99.90;;;;;;5015671;28;20485;-78
2022/06/09 07:55:10;;;;;;;;;;;22.70;99.90;;;;;;5015129;28;19927;-78
2022/06/09 07:57:37;;;;;;;;;;;22.80;99.90;;;;;;5015096;28;20441;-78
2022/06/09 08:00:05;;;;;;;;;;;22.80;99.90;;;;;;5015519;28;20008;-78
2022/06/09 08:02:31;;;;;;;;;;;22.80;99.90;;;;;;5015430;28;20431;-79
2022/06/09 08:05:00;;;;;;;;;;;22.80;99.90;;;;;;5015420;28;20439;-79
2022/06/09 08:07:26;;;;;;;;;;;22.70;99.90;;;;;;5015246;28;19960;-78
2022/06/09 08:09:53;;;;;;;;;;;22.70;99.90;;;;;;5015563;28;19922;-78
2022/06/09 08:12:20;;;;;;;;;;;22.70;99.90;;;;;;5015201;28;19921;-78
2022/06/09 08:14:47;;;;;;;;;;;22.70;99.90;;;;;;5015344;28;19928;-79
2022/06/09 08:17:13;;;;;;;;;;;22.70;99.90;;;;;;5014696;28;19921;-78
2022/06/09 08:19:42;;;;;;;;;;;22.80;99.90;;;;;;5014696;28;20436;-78
2022/06/09 08:22:10;;;;;;;;;;;22.70;99.90;;;;;;5015019;28;19927;-78
2022/06/09 08:24:37;;;;;;;;;;;22.80;99.90;;;;;;5014815;28;19921;-78
2022/06/09 08:27:04;;;;;;;;;;;22.80;99.90;;;;;;5014965;28;19921;-78
2022/06/09 08:29:30;;;;;;;;;;;22.80;99.90;;;;;;5015678;28;20008;-78
2022/06/09 08:31:57;;;;;;;;;;;22.80;99.90;;;;;;5015664;28;20293;-76
2022/06/09 08:34:24;;;;;;;;;;;22.80;99.90;;;;;;5016223;28;20008;-80
2022/06/09 08:36:51;;;;;;;;;;;22.90;99.90;;;;;;5015246;28;19972;-79
2022/06/09 08:39:19;;;;;;;;;;;22.90;99.90;;;;;;5016873;28;20000;-80
2022/06/09 08:41:52;;;;;;;;;;;22.90;99.90;;;;;;5017113;28;20004;-79
2022/06/09 08:44:24;;;;;;;;;;;22.80;99.90;;;;;;5018627;28;20285;-78
2022/06/09 08:46:55;;;;;;;;;;;22.80;99.90;;;;;;5020636;28;19921;-78
2022/06/09 08:49:50;;;;;;;;;;;22.80;99.90;;;;;;5016752;28;19928;-78
2022/06/09 08:52:25;;;;;;;;;;;22.80;99.90;;;;;;5021562;28;19927;-78
2022/06/09 08:54:56;;;;;;;;;;;22.80;99.90;;;;;;5017743;28;19933;-78
2022/06/09 08:57:27;;;;;;;;;;;22.80;99.90;;;;;;5022742;28;19956;-79
2022/06/09 08:59:57;;;;;;;;;;;22.70;99.90;;;;;;5020514;28;19976;-79
2022/06/09 09:02:28;;;;;;;;;;;22.80;99.90;;;;;;5015441;28;20012;-79
2022/06/09 09:05:00;;;;;;;;;;;22.70;99.90;;;;;;5014580;28;19922;-79
2022/06/09 09:07:30;;;;;;;;;;;22.70;99.90;;;;;;5014770;28;19925;-79
2022/06/09 09:10:12;;;;;;;;;;;22.70;99.90;;;;;;5015758;28;20266;-79
2022/06/09 09:12:44;;;;;;;;;;;22.70;99.90;;;;;;5015921;28;19922;-78
2022/06/09 09:15:14;;;;;;;;;;;22.70;99.90;;;;;;5020604;28;19944;-79
2022/06/09 09:17:47;;;;;;;;;;;22.70;99.90;;;;;;5015569;28;19957;-79
2022/06/09 09:20:17;;;;;;;;;;;22.70;99.90;;;;;;5014399;28;19936;-79
2022/06/09 09:22:49;;;;;;;;;;;22.70;99.90;;;;;;5014535;28;19928;-78
2022/06/09 09:25:23;;;;;;;;;;;22.70;99.90;;;;;;5013927;28;19921;-78
2022/06/09 09:27:53;;;;;;;;;;;22.70;99.90;;;;;;5014600;28;19932;-78
2022/06/09 09:30:21;;;;;;;;;;;22.70;99.90;;;;;;5013934;28;19928;-78
2022/06/09 09:32:49;;;;;;;;;;;22.70;99.90;;;;;;5014569;28;19922;-78
2022/06/09 09:35:18;;;;;;;;;;;22.70;99.90;;;;;;5014538;28;19921;-79
2022/06/09 09:37:46;;;;;;;;;;;22.70;99.90;;;;;;5014329;28;19943;-78
2022/06/09 09:40:17;;;;;;;;;;;22.80;99.90;;;;;;5014676;28;19969;-79
2022/06/09 09:42:46;;;;;;;;;;;22.80;99.90;;;;;;5014336;28;19921;-77
2022/06/09 09:45:18;;;;;;;;;;;22.80;99.90;;;;;;5013925;28;19925;-77
2022/06/09 09:47:47;;;;;;;;;;;22.80;99.90;;;;;;5014043;28;19925;-78
2022/06/09 09:50:21;;;;;;;;;;;22.80;99.90;;;;;;5014247;28;20292;-78
2022/06/09 09:52:54;;;;;;;;;;;22.80;99.90;;;;;;5014022;28;19921;-78
2022/06/09 09:55:41;;;;;;;;;;;22.70;99.90;;;;;;5013561;28;19928;-78
2022/06/09 09:58:18;;;;;;;;;;;22.70;99.90;;;;;;5010471;28;19921;-78
2022/06/09 10:00:45;;;;;;;;;;;22.80;99.90;;;;;;5013839;28;20024;-78
2022/06/09 10:08:49;;;;;;;;;;;22.70;99.90;;;;;;4991324;28;19924;-78
2022/06/09 10:14:05;;;;;;;;;;;22.80;99.90;;;;;;5017664;28;19968;-79
2022/06/09 10:16:34;;;;;;;;;;;22.80;99.90;;;;;;5022253;28;19928;-78
2022/06/09 10:19:02;;;;;;;;;;;22.70;99.90;;;;;;5021050;28;19997;-78
2022/06/09 10:21:46;;;;;;;;;;;22.80;99.90;;;;;;5017216;28;19937;-78
2022/06/09 10:24:13;;;;;;;;;;;22.80;99.90;;;;;;5016814;28;20401;-79
2022/06/09 10:26:41;;;;;;;;;;;22.80;99.90;;;;;;5016772;28;20377;-78
2022/06/09 10:29:14;;;;;;;;;;;22.80;99.90;;;;;;5017020;28;19921;-78
2022/06/09 10:31:44;;;;;;;;;;;22.80;99.90;;;;;;5017243;28;19921;-78
2022/06/09 10:34:16;;;;;;;;;;;22.80;99.90;;;;;;5017258;28;19921;-76
2022/06/09 10:36:48;;;;;;;;;;;22.80;99.90;;;;;;5016891;28;19932;-76
2022/06/09 10:39:19;;;;;;;;;;;22.80;99.90;;;;;;5016469;28;19928;-76
2022/06/09 10:41:48;;;;;;;;;;;22.80;99.90;;;;;;5016745;28;19979;-76
2022/06/09 10:44:20;;;;;;;;;;;22.80;99.90;;;;;;5016121;28;19928;-76
2022/06/09 10:55:14;;;;;;;;;;;22.80;99.90;;;;;;5016442;28;20411;-76
2022/06/09 10:55:19;;;;;;;;;;;22.90;99.90;;;;;;5016265;28;19932;-76
2022/06/09 10:57:50;;;;;;;;;;;22.80;99.90;;;;;;5016737;28;19944;-75
2022/06/09 11:00:20;;;;;;;;;;;22.90;99.90;;;;;;5016251;28;20274;-75
2022/06/09 11:02:49;;;;;;;;;;;22.80;99.90;;;;;;5016072;28;20412;-75
2022/06/09 11:05:18;;;;;;;;;;;22.80;99.90;;;;;;5021712;28;19969;-74
2022/06/09 11:07:51;;;;;;;;;;;22.80;99.90;;;;;;5021903;28;19987;-75
2022/06/09 11:10:22;;;;;;;;;;;22.90;99.90;;;;;;5024070;28;19921;-75
2022/06/09 11:12:53;;;;;;;;;;;22.90;99.90;;;;;;5024643;28;19925;-75
2022/06/09 11:15:27;;;;;;;;;;;22.90;99.90;;;;;;5022477;28;19928;-77
2022/06/09 11:18:01;;;;;;;;;;;22.80;99.90;;;;;;5018639;28;19932;-78
2022/06/09 11:20:31;;;;;;;;;;;22.80;99.90;;;;;;5016659;28;20008;-78
2022/06/09 11:23:03;;;;;;;;;;;22.80;99.90;;;;;;5016349;28;20023;-78
2022/06/09 11:25:36;;;;;;;;;;;22.90;99.90;;;;;;5016466;28;19922;-79
2022/06/09 11:28:08;;;;;;;;;;;22.90;99.90;;;;;;5016885;28;19921;-78
2022/06/09 11:30:41;;;;;;;;;;;22.90;99.90;;;;;;5016674;28;19945;-77
2022/06/09 11:33:13;;;;;;;;;;;22.90;99.90;;;;;;5018664;28;20294;-77
2022/06/09 11:35:44;;;;;;;;;;;22.90;99.90;;;;;;5022097;28;19928;-77
2022/06/09 11:38:19;;;;;;;;;;;22.90;99.90;;;;;;5024179;28;19927;-79
2022/06/09 11:40:49;;;;;;;;;;;22.90;99.90;;;;;;5024050;28;20416;-78
2022/06/09 11:43:27;;;;;;;;;;;22.90;99.90;;;;;;5024359;28;19922;-79
2022/06/09 11:45:56;;;;;;;;;;;22.90;99.90;;;;;;5023727;28;19925;-80
2022/06/09 11:48:24;;;;;;;;;;;23.00;99.90;;;;;;5023379;28;20277;-75
2022/06/09 11:50:52;;;;;;;;;;;22.90;99.90;;;;;;5021073;28;20301;-76
2022/06/09 11:53:20;;;;;;;;;;;22.90;99.90;;;;;;5023506;28;19921;-77
2022/06/09 11:56:00;;;;;;;;;;;22.90;99.90;;;;;;5020612;28;19944;-77
2022/06/09 11:58:47;;;;;;;;;;;22.90;99.90;;;;;;5022580;28;19922;-77
2022/06/09 12:01:27;;;;;;;;;;;22.90;99.90;;;;;;5021104;28;19940;-75
2022/06/09 12:04:08;;;;;;;;;;;22.90;99.90;;;;;;5021252;28;19949;-77
2022/06/09 12:06:42;;;;;;;;;;;22.90;99.90;;;;;;5022537;28;19931;-76
2022/06/09 12:09:12;;;;;;;;;;;22.90;99.90;;;;;;5020736;28;19929;-80
2022/06/09 12:11:50;;;;;;;;;;;23.00;99.90;;;;;;5020344;28;20013;-81
2022/06/09 12:14:19;;;;;;;;;;;22.90;99.90;;;;;;5018685;28;19989;-80
2022/06/09 12:16:56;;;;;;;;;;;23.00;99.90;;;;;;5018728;28;20012;-80
2022/06/09 12:19:24;;;;;;;;;;;23.00;99.90;;;;;;5016996;28;19928;-79
2022/06/09 12:21:52;;;;;;;;;;;23.00;99.90;;;;;;5016302;28;20020;-80
2022/06/09 12:24:24;;;;;;;;;;;23.00;99.90;;;;;;5017489;28;20011;-79
2022/06/09 12:26:55;;;;;;;;;;;22.90;99.90;;;;;;5017889;28;20023;-80
2022/06/09 12:29:24;;;;;;;;;;;22.90;99.90;;;;;;5017016;28;20270;-79
2022/06/09 12:32:20;;;;;;;;;;;23.00;99.90;;;;;;5016308;28;19921;-78
2022/06/09 12:34:49;;;;;;;;;;;23.00;99.90;;;;;;4991367;28;19921;-79
2022/06/09 12:37:17;;;;;;;;;;;23.00;99.90;;;;;;5018208;28;19921;-78
2022/06/09 12:39:47;;;;;;;;;;;23.00;99.90;;;;;;5019606;28;20015;-78
2022/06/09 12:42:19;;;;;;;;;;;23.00;99.90;;;;;;5020042;28;19926;-78
2022/06/09 12:44:48;;;;;;;;;;;23.00;99.90;;;;;;5019924;28;19928;-78
2022/06/09 12:47:18;;;;;;;;;;;22.90;99.90;;;;;;5020050;28;19944;-78
2022/06/09 12:49:45;;;;;;;;;;;23.00;99.90;;;;;;5020856;28;19921;-78
2022/06/09 12:52:23;;;;;;;;;;;22.90;99.90;;;;;;5018792;28;19929;-79
2022/06/09 12:54:55;;;;;;;;;;;22.90;99.90;;;;;;5020691;28;19925;-78
2022/06/09 12:57:25;;;;;;;;;;;22.90;99.90;;;;;;5021313;28;20377;-79
2022/06/09 13:00:00;;;;;;;;;;;22.90;99.90;;;;;;5021028;28;19921;-78
2022/06/09 13:02:29;;;;;;;;;;;22.90;99.90;;;;;;5021241;28;20389;-78
2022/06/09 13:04:58;;;;;;;;;;;22.90;99.90;;;;;;5014870;28;19961;-78
2022/06/09 13:07:27;;;;;;;;;;;22.90;99.90;;;;;;5014377;28;19921;-78
2022/06/09 13:10:06;;;;;;;;;;;22.80;99.90;;;;;;5014176;28;20389;-78
2022/06/09 13:15:26;;;;;;;;;;;22.90;99.90;;;;;;5014572;28;20387;-79
2022/06/09 13:17:54;;;;;;;;;;;22.80;99.90;;;;;;5014661;28;20023;-81
2022/06/09 13:20:22;;;;;;;;;;;22.80;99.90;;;;;;5014575;28;19922;-78
2022/06/09 13:22:50;;;;;;;;;;;22.90;99.90;;;;;;5014173;28;19929;-78
2022/06/09 13:25:19;;;;;;;;;;;22.80;99.90;;;;;;5014259;28;19921;-79
2022/06/09 13:27:48;;;;;;;;;;;22.80;99.90;;;;;;5014322;28;19944;-78
2022/06/09 13:30:37;;;;;;;;;;;22.90;99.90;;;;;;5014458;28;19975;-78
2022/06/09 13:33:19;;;;;;;;;;;22.80;99.90;;;;;;5014323;28;19925;-77
2022/06/09 13:35:46;;;;;;;;;;;22.90;99.90;;;;;;5013961;28;19928;-77
2022/06/09 13:38:18;;;;;;;;;;;22.80;99.90;;;;;;5013756;28;19921;-76
2022/06/09 13:40:48;;;;;;;;;;;22.90;99.90;;;;;;5014071;28;20300;-77
2022/06/09 13:43:17;;;;;;;;;;;22.90;99.90;;;;;;5014016;28;19945;-78
2022/06/09 13:45:49;;;;;;;;;;;22.80;99.90;;;;;;5013953;28;19921;-77
2022/06/09 13:48:17;;;;;;;;;;;22.80;99.90;;;;;;5016719;28;20306;-77
2022/06/09 13:50:46;;;;;;;;;;;22.90;99.70;;;;;;5017855;28;20027;-77
2022/06/09 13:53:23;;;;;;;;;;;22.90;99.30;;;;;;5017570;28;19971;-78
2022/06/09 13:55:50;;;;;;;;;;;22.80;99.00;;;;;;5019061;28;19932;-80
2022/06/09 13:58:16;;;;;;;;;;;22.80;98.60;;;;;;5018700;28;19928;-80
2022/06/09 14:00:46;;;;;;;;;;;22.80;98.30;;;;;;5018707;28;20015;-80
2022/06/09 14:03:14;;;;;;;;;;;22.80;98.10;;;;;;5018142;28;20266;-80
2022/06/09 14:05:43;;;;;;;;;;;22.80;97.80;;;;;;5018396;28;19933;-80
2022/06/09 14:08:11;;;;;;;;;;;22.80;97.60;;;;;;5018089;28;19928;-80
2022/06/09 14:10:39;;;;;;;;;;;22.80;97.30;;;;;;5018602;28;19928;-80
2022/06/09 14:13:06;;;;;;;;;;;22.80;97.00;;;;;;5017967;28;20012;-80
2022/06/09 14:15:34;;;;;;;;;;;22.80;96.70;;;;;;5018262;28;20004;-80
2022/06/09 14:18:01;;;;;;;;;;;22.80;96.70;;;;;;5018434;28;20008;-80
2022/06/09 14:20:29;;;;;;;;;;;22.80;96.50;;;;;;5018668;28;20016;-81
2022/06/09 14:22:56;;;;;;;;;;;22.80;96.20;;;;;;5020102;28;19964;-81
2022/06/09 14:25:22;;;;;;;;;;;22.80;96.00;;;;;;5019454;28;19944;-81
2022/06/09 14:27:50;;;;;;;;;;;22.90;95.80;;;;;;5018961;28;20023;-80
2022/06/09 14:30:18;;;;;;;;;;;22.90;95.60;;;;;;5018534;28;19923;-80
2022/06/09 14:32:45;;;;;;;;;;;22.80;95.30;;;;;;5019319;28;19925;-80
2022/06/09 14:35:16;;;;;;;;;;;22.80;95.20;;;;;;5019065;28;20020;-80
2022/06/09 14:37:43;;;;;;;;;;;22.90;95.10;;;;;;5018798;28;19921;-80
2022/06/09 14:40:17;;;;;;;;;;;22.90;95.00;;;;;;5018910;28;20036;-80
2022/06/09 14:42:45;;;;;;;;;;;22.80;94.80;;;;;;5018671;28;20091;-80
2022/06/09 14:45:13;;;;;;;;;;;22.90;94.80;;;;;;5017941;28;19928;-80
2022/06/09 14:47:40;;;;;;;;;;;22.90;94.70;;;;;;5018559;28;19944;-80
2022/06/09 14:50:07;;;;;;;;;;;22.90;94.60;;;;;;5018577;28;19944;-80